Архив погоды в Колпашево

Метеограмма Колпашево
Вторник, 18 Сентября
Время местн. Темп Ветер Видим Явления Облачность нижн/средн/верх Атм. давл. Влжн Точка росы ВНГО R Сост. почвы Tg s
Напр Скр Прв ур.ст ур.м изм
21:00 +1.1° штиль 0 - 20 км - переменная облачность 764 771 +0.7 97% +0.7° более 2.5 км - - - -
18:00 +7.7° штиль 0 - 20 км - переменная облачность 763 771 -0.5 74% +3.4° - 0 - - -
15:00 +12.1° Ю-З 2 - 20 км - ясно 764 771 -0.2 40% -1.2° более 2.5 км - - - -
12:00 +10.5° З,С-З 2 - 20 км - переменная облачность 764 771 +0.4 45% -0.9° более 2.5 км - - - -
09:00 +5° З 1 - 20 км - ясно 764 771 +0.8 76% +1.2° более 2.5 км - - - -
06:00 -2.3° З 1 - 20 км - ясно 763 770 +0.7 99% -2.5° более 2.5 км 0 Замерзшая - -
03:00 -0.4° З 1 - 20 км - ясно 762 770 +0.5 97% -0.8° более 2.5 км - - - -
00:00 +0.8° З,С-З 1 - 20 км - ясно 762 769 +0.5 96% +0.2° более 2.5 км - - - -
Понедельник, 17 Сентября
Время местн. Темп Ветер Видим Явления Облачность нижн/средн/верх Атм. давл. Влжн Точка росы ВНГО R Сост. почвы Tg s
Напр Скр Прв ур.ст ур.м изм
21:00 +1.3° З 1 - 20 км - ясно 761 769 +1.1 96% +0.8° более 2.5 км - - - -
18:00 +8.7° З,С-З 2 - 20 км - ясно 760 767 +0.7 55% +0.2° более 2.5 км 0 - - -
15:00 +10.4° З,С-З 3 - 20 км - переменная облачность 760 767 +0.7 43% -1.7° 1.5 км - - - -
12:00 +9.4° З,С-З 3 - 20 км - незначительная облачность 759 766 +0.8 53% +0.3° 1.5 км - - - -
09:00 +4.6° С-З 2 - 20 км - ясно 758 765 +1.1 83% +2° более 2.5 км - - - -
06:00 +1.5° З,С-З 2 - 20 км - переменная облачность 757 764 +0.9 97% +1.1° более 2.5 км 0 Влажная (без луж) - -
03:00 +3.4° З,С-З 1 - 20 км - переменная облачность 756 763 +0.6 95% +2.7° 1 км - - - -
00:00 +5.4° З,С-З 2 - 20 км небо без изменений {ливневые осадки} преимущественно облачно 756 763 +0.4 93% +4.3° 600 м - - - -
Воскресенье, 16 Сентября
Время местн. Темп Ветер Видим Явления Облачность нижн/средн/верх Атм. давл. Влжн Точка росы ВНГО R Сост. почвы Tg s
Напр Скр Прв ур.ст ур.м изм
21:00 +5.2° З,С-З 1 - 20 км небо без изменений {ливневые осадки} преимущественно облачно 755 762 +1.2 96% +4.6° 1 км - - - -
18:00 +6° С-З 2 - 10 км слабый ливневый дождь облачно 754 761 +1.4 94% +5.1° 300 м 2 - - -
15:00 +7.2° З,С-З 2 - 10 км слабый ливневый дождь облачно 753 760 +1.5 89% +5.5° 300 м - - - -
12:00 +7.5° З,С-З 3 - 10 км слабый ливневый дождь облачно 751 758 +2 90% +5.9° 600 м - - - -
09:00 +9.3° З 3 - 10 км слабый ливневый дождь облачно 749 756 +0.5 93% +8.3° 600 м - - - -
06:00 +9.4° З 2 - 10 км слабый ливневый дождь облачно 749 756 +0.2 90% +7.8° 600 м 0 Влажная (без луж) - -
03:00 +10.2° З,Ю-З 2 - 20 км - облачно 748 755 -0.2 89% +8.5° 600 м - - - -
00:00 +9.8° Ю 1 - 20 км - облачно с прояснениями 749 756 -0.2 89% +8° - - - - -
Суббота, 15 Сентября
Время местн. Темп Ветер Видим Явления Облачность нижн/средн/верх Атм. давл. Влжн Точка росы ВНГО R Сост. почвы Tg s
Напр Скр Прв ур.ст ур.м изм
21:00 +10.7° Ю 1 - 20 км - облачно с прояснениями 749 756 +0.7 77% +6.8° более 2.5 км - - - -
18:00 +13.1° З,Ю-З 2 - 20 км - облачно с прояснениями 748 755 +1.1 67% +7.2° 1 км 0 - - -